createdAt,value
2019-03-12T01:20:43.504Z,26.80
2019-03-12T01:23:14.463Z,26.90
2019-03-12T01:25:45.644Z,26.90
2019-03-12T01:28:20.495Z,27.00
2019-03-12T01:30:51.536Z,27.10
2019-03-12T01:33:23.049Z,27.20
2019-03-12T01:35:54.597Z,27.30
2019-03-12T01:38:25.732Z,27.40
2019-03-12T01:41:06.462Z,27.50
2019-03-12T01:43:38.129Z,27.50
2019-03-12T01:46:09.867Z,27.60
2019-03-12T01:48:42.294Z,27.70
2019-03-12T01:51:20.644Z,27.80
2019-03-12T01:53:53.456Z,27.90
2019-03-12T01:56:24.876Z,27.90
2019-03-12T01:59:02.750Z,28.00
2019-03-12T02:01:35.140Z,28.10
2019-03-12T02:04:10.310Z,28.10
2019-03-12T02:06:41.957Z,28.20
2019-03-12T02:09:14.359Z,28.30
2019-03-12T02:11:54.409Z,28.30
2019-03-12T02:14:28.348Z,28.40
2019-03-12T02:17:00.110Z,28.50
2019-03-12T02:19:31.242Z,28.60
2019-03-12T02:22:13.905Z,28.60
2019-03-12T02:24:52.626Z,28.70
2019-03-12T02:27:23.067Z,28.80
2019-03-12T02:29:54.831Z,28.90
2019-03-12T02:32:26.085Z,29.00
2019-03-12T02:34:57.239Z,29.10
2019-03-12T02:37:32.690Z,29.20
2019-03-12T02:40:14.286Z,29.30
2019-03-12T02:42:43.350Z,29.40
2019-03-12T02:45:16.304Z,29.60
2019-03-12T02:47:47.467Z,29.70
2019-03-12T02:50:22.556Z,29.70
2019-03-12T02:52:55.502Z,29.90
2019-03-12T02:55:27.020Z,29.90
2019-03-12T02:57:59.153Z,30.00
2019-03-12T03:00:30.569Z,30.00
2019-03-12T03:03:22.285Z,30.10
2019-03-12T03:05:55.204Z,30.20
2019-03-12T03:08:41.618Z,30.30
2019-03-12T03:11:05.736Z,30.40
2019-03-12T03:13:36.961Z,30.50
2019-03-12T03:16:07.731Z,30.70
2019-03-12T03:21:32.857Z,30.90
2019-03-12T03:24:03.856Z,31.10
2019-03-12T03:26:35.763Z,31.30
2019-03-12T03:29:08.721Z,31.40
2019-03-12T03:34:35.808Z,31.70
2019-03-12T03:37:07.668Z,31.80
2019-03-12T03:39:43.519Z,32.00
2019-03-12T03:42:14.710Z,32.30
2019-03-12T03:44:46.315Z,32.50
2019-03-12T03:47:19.958Z,32.60
2019-03-12T03:49:49.682Z,32.70
2019-03-12T03:52:20.326Z,32.80
2019-03-12T03:54:53.237Z,32.80
2019-03-12T03:57:24.532Z,32.80
2019-03-12T03:59:56.825Z,32.90
2019-03-12T04:02:27.525Z,33.00
2019-03-12T04:04:58.626Z,33.10
2019-03-12T04:07:33.348Z,33.20
2019-03-12T04:10:06.113Z,33.30
2019-03-12T04:12:37.376Z,33.50
2019-03-12T04:15:11.826Z,33.50
2019-03-12T04:17:43.518Z,33.60
2019-03-12T04:20:17.097Z,33.60
2019-03-12T04:22:48.020Z,33.60
2019-03-12T04:25:18.772Z,33.70
2019-03-12T04:27:49.647Z,33.70
2019-03-12T04:30:21.138Z,33.80
2019-03-12T04:32:52.535Z,33.90
2019-03-12T04:35:25.980Z,33.90
2019-03-12T04:37:58.189Z,34.00
2019-03-12T04:40:29.184Z,34.00
2019-03-12T04:43:00.589Z,34.00
2019-03-12T04:45:31.668Z,34.10
2019-03-12T04:48:02.585Z,34.10
2019-03-12T04:50:33.521Z,34.20
2019-03-12T04:53:04.149Z,34.30
2019-03-12T04:55:35.088Z,34.30
2019-03-12T04:58:07.713Z,34.40
2019-03-12T05:06:14.884Z,34.50
2019-03-12T05:08:47.344Z,34.50
2019-03-12T05:11:25.734Z,34.50
2019-03-12T05:13:59.904Z,34.50
2019-03-12T05:16:30.675Z,34.50
2019-03-12T05:19:01.671Z,34.50
2019-03-12T05:21:35.059Z,34.60
2019-03-12T05:24:05.935Z,34.70
2019-03-12T05:26:39.645Z,34.70
2019-03-12T05:29:10.504Z,34.70
2019-03-12T05:31:41.613Z,34.70
2019-03-12T05:34:12.530Z,34.80
2019-03-12T05:36:44.666Z,34.80
2019-03-12T05:39:15.611Z,34.90
2019-03-12T05:41:48.718Z,35.00
2019-03-12T05:44:20.238Z,35.10
2019-03-12T05:46:51.469Z,35.10
2019-03-12T05:49:22.535Z,35.20
2019-03-12T05:51:56.289Z,35.20
2019-03-12T05:54:28.917Z,35.20
2019-03-12T05:56:59.992Z,35.20
2019-03-12T05:59:30.731Z,35.30
2019-03-12T06:02:05.773Z,35.30
2019-03-12T06:07:59.324Z,35.40
2019-03-12T06:10:30.296Z,35.50
2019-03-12T06:13:01.284Z,35.50
2019-03-12T06:15:32.284Z,35.50
2019-03-12T06:18:03.696Z,35.50
2019-03-12T06:20:34.823Z,35.60
2019-03-12T06:23:06.349Z,35.70
2019-03-12T06:25:37.088Z,35.80
2019-03-12T06:28:07.954Z,35.80
2019-03-12T06:30:40.175Z,35.90
2019-03-12T06:33:15.104Z,35.90
2019-03-12T06:35:46.254Z,35.90
2019-03-12T06:38:23.008Z,36.00
2019-03-12T06:40:55.932Z,36.00
2019-03-12T06:43:28.298Z,36.10
2019-03-12T06:46:00.859Z,36.10
2019-03-12T06:48:32.959Z,36.20
2019-03-12T06:51:06.536Z,36.20
2019-03-12T06:53:39.248Z,36.20
2019-03-12T06:56:11.459Z,36.20
2019-03-12T06:58:46.968Z,36.20
2019-03-12T07:01:23.593Z,36.20
2019-03-12T07:03:55.960Z,36.20
2019-03-12T07:06:31.841Z,36.30
2019-03-12T07:09:04.303Z,36.30
2019-03-12T07:11:42.111Z,36.30
2019-03-12T07:14:14.576Z,36.30
2019-03-12T07:16:46.801Z,36.20
2019-03-12T07:19:20.343Z,36.20
2019-03-12T07:21:52.926Z,36.20
2019-03-12T07:24:25.345Z,36.30
2019-03-12T07:27:00.949Z,36.30
2019-03-12T07:29:33.239Z,36.40
2019-03-12T07:32:09.779Z,36.40
2019-03-12T07:34:46.591Z,36.40
2019-03-12T07:37:18.260Z,36.40
2019-03-12T07:39:50.449Z,36.40
2019-03-12T07:42:24.551Z,36.50
2019-03-12T07:44:56.852Z,36.50
2019-03-12T07:47:35.694Z,36.50
2019-03-12T07:50:04.120Z,36.60
2019-03-12T07:52:36.576Z,36.50
2019-03-12T07:55:09.232Z,36.50
2019-03-12T07:57:41.628Z,36.50
2019-03-12T08:00:16.661Z,36.60
2019-03-12T08:02:49.050Z,36.50
2019-03-12T08:05:23.159Z,36.60
2019-03-12T08:07:54.918Z,36.60
2019-03-12T08:10:33.797Z,36.50
2019-03-12T08:13:05.248Z,36.60
2019-03-12T08:15:37.701Z,36.60
2019-03-12T08:18:08.389Z,36.60
2019-03-12T08:20:42.091Z,36.60
2019-03-12T08:23:15.956Z,36.60
2019-03-12T08:25:48.293Z,36.60
2019-03-12T08:28:21.327Z,36.50
2019-03-12T08:30:53.541Z,36.50
2019-03-12T08:33:24.057Z,36.50
2019-03-12T08:35:56.451Z,36.50
2019-03-12T08:38:28.716Z,36.50
2019-03-12T08:41:10.101Z,36.40
2019-03-12T08:43:40.847Z,36.40
2019-03-12T08:46:12.827Z,36.40
2019-03-12T08:48:44.932Z,36.40
2019-03-12T08:51:17.367Z,36.30
2019-03-12T08:53:51.076Z,36.30
2019-03-12T08:56:26.669Z,36.30
2019-03-12T08:58:57.546Z,36.30
2019-03-12T09:01:29.928Z,36.30
2019-03-12T09:04:02.292Z,36.30
2019-03-12T09:06:34.650Z,36.30
2019-03-12T09:09:08.080Z,36.30
2019-03-12T09:11:40.447Z,36.30
2019-03-12T09:14:12.844Z,36.30
2019-03-12T09:16:48.474Z,36.30
2019-03-12T09:19:22.088Z,36.30
2019-03-12T09:21:54.096Z,36.30
2019-03-12T09:24:26.706Z,36.40
2019-03-12T09:26:58.985Z,36.40
2019-03-12T09:29:31.471Z,36.40
2019-03-12T09:32:03.729Z,36.40
2019-03-12T09:34:36.217Z,36.40
2019-03-12T09:37:09.508Z,36.40
2019-03-12T09:39:43.881Z,36.40
2019-03-12T09:42:18.188Z,36.40
2019-03-12T09:44:50.719Z,36.40
2019-03-12T09:47:26.011Z,36.30
2019-03-12T09:49:58.129Z,36.30
2019-03-12T09:52:31.533Z,36.30
2019-03-12T09:55:05.038Z,36.30
2019-03-12T09:57:40.516Z,36.20
2019-03-12T10:00:17.575Z,36.20
2019-03-12T10:02:59.973Z,36.20
2019-03-12T10:05:32.143Z,36.20
2019-03-12T10:08:05.297Z,36.10
2019-03-12T10:10:37.610Z,36.10
2019-03-12T10:13:10.748Z,36.00
2019-03-12T10:15:43.064Z,36.00
2019-03-12T10:18:15.242Z,35.90
2019-03-12T10:20:48.383Z,35.80
2019-03-12T10:23:22.251Z,35.80
2019-03-12T10:25:54.517Z,35.70
2019-03-12T10:28:27.078Z,35.60
2019-03-12T10:30:59.092Z,35.60
2019-03-12T10:33:31.419Z,35.60
2019-03-12T10:36:06.752Z,35.50
2019-03-12T10:38:41.933Z,35.50
2019-03-12T10:41:14.859Z,35.50
2019-03-12T10:43:45.981Z,35.40
2019-03-12T10:46:18.217Z,35.30
2019-03-12T10:48:48.941Z,35.20
2019-03-12T10:51:19.814Z,35.20
2019-03-12T10:53:50.544Z,35.10
2019-03-12T10:56:22.212Z,35.10
2019-03-12T10:58:53.320Z,35.00
2019-03-12T11:01:24.901Z,34.90
2019-03-12T11:03:57.279Z,34.90
2019-03-12T11:06:28.319Z,34.80
2019-03-12T11:08:59.329Z,34.80
2019-03-12T11:11:31.640Z,34.70
2019-03-12T11:14:02.539Z,34.60
2019-03-12T11:16:33.639Z,34.50
2019-03-12T11:19:04.617Z,34.40
2019-03-12T11:21:35.349Z,34.40
2019-03-12T11:24:06.231Z,34.30
2019-03-12T11:26:37.021Z,34.20
2019-03-12T11:29:07.759Z,34.20
2019-03-12T11:31:38.698Z,34.10
2019-03-12T11:34:12.521Z,34.10
2019-03-12T11:36:43.301Z,34.00
2019-03-12T11:39:15.537Z,33.90
2019-03-12T11:41:50.010Z,33.90
2019-03-12T11:44:20.947Z,33.80
2019-03-12T11:46:53.072Z,33.80
2019-03-12T11:49:25.073Z,33.70
2019-03-12T11:51:58.171Z,33.70
2019-03-12T11:54:29.134Z,33.70
2019-03-12T11:57:03.918Z,33.60
2019-03-12T11:59:34.734Z,33.60
2019-03-12T12:02:05.371Z,33.60
2019-03-12T12:04:36.210Z,33.50
2019-03-12T12:07:07.127Z,33.50
2019-03-12T12:09:39.390Z,33.40
2019-03-12T12:12:10.681Z,33.40
2019-03-12T12:14:41.240Z,33.40
2019-03-12T12:17:12.193Z,33.40
2019-03-12T12:19:43.446Z,33.30
2019-03-12T12:22:14.479Z,33.30
2019-03-12T12:24:45.867Z,33.30
2019-03-12T12:27:16.807Z,33.20
2019-03-12T12:29:47.776Z,33.20
2019-03-12T12:32:18.504Z,33.10
2019-03-12T12:34:49.294Z,33.00
2019-03-12T12:37:20.090Z,33.00
2019-03-12T12:39:51.066Z,32.90
2019-03-12T12:42:21.939Z,32.90
2019-03-12T12:44:52.803Z,32.90
2019-03-12T12:47:23.667Z,32.80
2019-03-12T12:49:54.550Z,32.80
2019-03-12T12:52:25.390Z,32.70
2019-03-12T12:54:56.236Z,32.70
2019-03-12T12:57:27.096Z,32.70
2019-03-12T12:59:58.133Z,32.70
2019-03-12T13:02:28.822Z,32.60
2019-03-12T13:04:59.821Z,32.50
2019-03-12T13:07:30.641Z,32.50
2019-03-12T13:10:01.488Z,32.40
2019-03-12T13:12:32.291Z,32.40
2019-03-12T13:15:03.121Z,32.40
2019-03-12T13:17:34.135Z,32.30
2019-03-12T13:20:05.366Z,32.30
2019-03-12T13:22:38.799Z,32.20
2019-03-12T13:25:12.354Z,32.20
2019-03-12T13:27:43.435Z,32.20
2019-03-12T13:30:17.144Z,32.10
2019-03-12T13:32:48.892Z,32.10
2019-03-12T13:35:20.513Z,32.00
2019-03-12T13:37:54.945Z,32.00
2019-03-12T13:40:27.534Z,32.00
2019-03-12T13:42:58.718Z,31.90
2019-03-12T13:45:32.294Z,31.80
2019-03-12T13:48:03.502Z,31.80
2019-03-12T13:50:34.674Z,31.70
2019-03-12T13:53:05.702Z,31.60
2019-03-12T13:55:36.640Z,31.60
2019-03-12T13:58:07.479Z,31.50
2019-03-12T14:00:38.417Z,31.40
2019-03-12T14:03:09.206Z,31.30
2019-03-12T14:05:40.202Z,31.30
2019-03-12T14:08:13.913Z,31.20
2019-03-12T14:10:44.811Z,31.10
2019-03-12T14:13:15.673Z,31.00
2019-03-12T14:15:49.664Z,31.00
2019-03-12T14:18:20.470Z,30.90
2019-03-12T14:20:53.846Z,30.90
2019-03-12T14:23:27.362Z,30.80
2019-03-12T14:25:58.354Z,30.80
2019-03-12T14:28:28.985Z,30.70
2019-03-12T14:30:59.907Z,30.70
2019-03-12T14:33:30.716Z,30.60
2019-03-12T14:36:03.366Z,30.60
2019-03-12T14:38:35.887Z,30.50
2019-03-12T14:41:06.494Z,30.40
2019-03-12T14:43:37.291Z,30.40
2019-03-12T14:46:08.206Z,30.30
2019-03-12T14:48:41.919Z,30.30
2019-03-12T14:51:15.828Z,30.30
2019-03-12T14:53:49.413Z,30.20
2019-03-12T14:56:20.316Z,30.20
2019-03-12T14:58:52.914Z,30.20
2019-03-12T15:01:23.311Z,30.10
2019-03-12T15:03:54.372Z,30.00
2019-03-12T15:06:25.479Z,30.00
2019-03-12T15:08:56.001Z,29.90
2019-03-12T15:11:26.555Z,29.90
2019-03-12T15:13:57.551Z,29.90
2019-03-12T15:16:29.026Z,29.80
2019-03-12T15:18:59.800Z,29.80
2019-03-12T15:21:30.877Z,29.70
2019-03-12T15:24:01.790Z,29.70
2019-03-12T15:26:33.805Z,29.70
2019-03-12T15:29:04.610Z,29.70
2019-03-12T15:31:35.751Z,29.60
2019-03-12T15:34:06.505Z,29.50
2019-03-12T15:36:37.353Z,29.50
2019-03-12T15:39:08.699Z,29.50
2019-03-12T15:41:39.579Z,29.50
2019-03-12T15:44:10.431Z,29.50
2019-03-12T15:46:41.256Z,29.40
2019-03-12T15:49:11.905Z,29.30
2019-03-12T15:51:42.881Z,29.30
2019-03-12T15:54:13.809Z,29.20
2019-03-12T15:56:45.484Z,29.10
2019-03-12T15:59:16.249Z,29.10
2019-03-12T16:01:47.112Z,29.20
2019-03-12T16:04:17.729Z,29.20
2019-03-12T16:07:00.387Z,29.20
2019-03-12T16:09:20.738Z,29.20
2019-03-12T16:11:51.605Z,29.20
2019-03-12T16:14:22.893Z,29.20
2019-03-12T16:16:53.757Z,29.20
2019-03-12T16:19:24.642Z,29.20
2019-03-12T16:21:55.537Z,29.10
2019-03-12T16:24:26.377Z,29.00
2019-03-12T16:26:58.071Z,29.10
2019-03-12T16:29:28.787Z,29.00
2019-03-12T16:31:59.734Z,29.00
2019-03-12T16:34:30.538Z,29.00
2019-03-12T16:37:01.323Z,28.90
2019-03-12T16:39:34.825Z,28.80
2019-03-12T16:42:05.545Z,28.80
2019-03-12T16:44:36.678Z,28.70
2019-03-12T16:47:07.452Z,28.70
2019-03-12T16:49:37.999Z,28.60
2019-03-12T16:52:08.753Z,28.60
2019-03-12T16:54:39.846Z,28.50
2019-03-12T16:57:10.554Z,28.50
2019-03-12T16:59:41.268Z,28.60
2019-03-12T17:02:12.198Z,28.50
2019-03-12T17:04:43.011Z,28.60
2019-03-12T17:07:13.822Z,28.60
2019-03-12T17:09:44.915Z,28.60
2019-03-12T17:12:16.181Z,28.60
2019-03-12T17:14:47.100Z,28.60
2019-03-12T17:17:23.705Z,28.60
2019-03-12T17:19:54.490Z,28.60
2019-03-12T17:22:25.327Z,28.60
2019-03-12T17:24:56.231Z,28.60
2019-03-12T17:27:27.036Z,28.60
2019-03-12T17:29:57.896Z,28.60
2019-03-12T17:32:31.416Z,28.60
2019-03-12T17:35:02.254Z,28.60
2019-03-12T17:37:33.073Z,28.50
2019-03-12T17:40:05.190Z,28.60
2019-03-12T17:42:35.980Z,28.50
2019-03-12T17:45:09.354Z,28.50
2019-03-12T17:47:40.932Z,28.50
2019-03-12T17:50:14.588Z,28.50
2019-03-12T17:52:50.011Z,28.40
2019-03-12T17:55:21.078Z,28.30
2019-03-12T17:58:12.304Z,28.30
2019-03-12T18:00:44.368Z,28.20
2019-03-12T18:03:15.228Z,28.10
2019-03-12T18:05:46.042Z,28.10
2019-03-12T18:08:19.948Z,28.10
2019-03-12T18:10:50.612Z,28.10
2019-03-12T18:13:21.467Z,28.00
2019-03-12T18:15:52.439Z,27.90
2019-03-12T18:18:24.346Z,28.00
2019-03-12T18:20:55.237Z,27.90
2019-03-12T18:23:25.961Z,27.80
2019-03-12T18:25:56.551Z,27.80
2019-03-12T18:28:27.656Z,27.70
2019-03-12T18:30:58.645Z,27.70
2019-03-12T18:33:34.794Z,27.60
2019-03-12T18:36:05.611Z,27.50
2019-03-12T18:38:36.535Z,27.50
2019-03-12T18:41:07.630Z,27.40
2019-03-12T18:43:39.898Z,27.40
2019-03-12T18:46:10.724Z,27.30
2019-03-12T18:48:44.591Z,27.20
2019-03-12T18:51:14.888Z,27.20
2019-03-12T18:53:45.939Z,27.20
2019-03-12T18:56:16.636Z,27.10
2019-03-12T18:58:47.213Z,27.10
2019-03-12T19:01:18.025Z,27.10
2019-03-12T19:03:50.168Z,27.10
2019-03-12T19:06:21.037Z,27.10
2019-03-12T19:08:51.901Z,27.10
2019-03-12T19:11:22.799Z,27.10
2019-03-12T19:13:56.359Z,27.20
2019-03-12T19:16:27.218Z,27.20
2019-03-12T19:18:57.792Z,27.20
2019-03-12T19:21:30.016Z,27.10
2019-03-12T19:24:00.702Z,27.10
2019-03-12T19:26:31.780Z,27.00
2019-03-12T19:29:04.120Z,27.00
2019-03-12T19:31:38.867Z,26.90
2019-03-12T19:34:14.325Z,26.90
2019-03-12T19:36:45.126Z,26.90
2019-03-12T19:39:17.304Z,26.80
2019-03-12T19:41:48.869Z,26.80
2019-03-12T19:44:19.470Z,26.70
2019-03-12T19:46:50.278Z,26.70
2019-03-12T19:49:21.492Z,26.60
2019-03-12T19:51:52.450Z,26.60
2019-03-12T19:54:23.480Z,26.50
2019-03-12T19:56:54.184Z,26.50
2019-03-12T19:59:24.935Z,26.50
2019-03-12T20:01:57.521Z,26.40
2019-03-12T20:04:28.321Z,26.30
2019-03-12T20:06:59.083Z,26.30
2019-03-12T20:09:32.807Z,26.10
2019-03-12T20:12:06.405Z,26.10
2019-03-12T20:14:40.222Z,26.10
2019-03-12T20:17:13.914Z,26.10
2019-03-12T20:19:47.617Z,26.00
2019-03-12T20:22:21.123Z,26.10
2019-03-12T20:24:54.493Z,26.00
2019-03-12T20:27:28.125Z,26.00
2019-03-12T20:30:01.742Z,26.00
2019-03-12T20:32:35.111Z,26.00
2019-03-12T20:35:08.515Z,25.90
2019-03-12T20:37:42.011Z,25.90
2019-03-12T20:40:15.614Z,25.90
2019-03-12T20:42:49.136Z,25.90
2019-03-12T20:45:22.874Z,25.80
2019-03-12T20:47:56.423Z,25.70
2019-03-12T20:50:30.036Z,25.70
2019-03-12T20:53:03.551Z,25.70
2019-03-12T20:55:37.036Z,25.60
2019-03-12T20:58:11.560Z,25.40
2019-03-12T21:00:45.161Z,25.40
2019-03-12T21:03:18.974Z,25.30
2019-03-12T21:05:52.481Z,25.30
2019-03-12T21:08:25.873Z,25.30
2019-03-12T21:10:59.445Z,25.30
2019-03-12T21:13:32.708Z,25.30
2019-03-12T21:16:06.401Z,25.20
2019-03-12T21:18:39.747Z,25.20
2019-03-12T21:21:13.468Z,25.20
2019-03-12T21:23:46.885Z,25.10
2019-03-12T21:26:20.838Z,25.10
2019-03-12T21:28:54.291Z,25.10
2019-03-12T21:31:25.814Z,25.00
2019-03-12T21:33:56.701Z,25.00
2019-03-12T21:36:30.819Z,24.90
2019-03-12T21:38:59.563Z,24.90
2019-03-12T21:41:30.375Z,24.80
2019-03-12T21:44:01.381Z,24.80
2019-03-12T21:46:31.974Z,24.70
2019-03-12T21:49:02.850Z,24.70
2019-03-12T21:51:33.541Z,24.60
2019-03-12T21:54:04.283Z,24.60
2019-03-12T21:56:35.373Z,24.50
2019-03-12T21:59:06.530Z,24.60
2019-03-12T22:01:37.159Z,24.60
2019-03-12T22:04:08.038Z,24.60
2019-03-12T22:06:38.762Z,24.60
2019-03-12T22:09:09.539Z,24.60
2019-03-12T22:11:40.496Z,24.60
2019-03-12T22:14:10.990Z,24.60
2019-03-12T22:16:42.011Z,24.60
2019-03-12T22:19:13.176Z,24.60
2019-03-12T22:21:45.159Z,24.60
2019-03-12T22:24:17.563Z,24.60
2019-03-12T22:26:48.464Z,24.50
2019-03-12T22:29:19.568Z,24.50
2019-03-12T22:31:52.035Z,24.50
2019-03-12T22:34:22.558Z,24.50
2019-03-12T22:36:53.228Z,24.50
2019-03-12T22:39:24.185Z,24.40
2019-03-12T22:41:57.563Z,24.40
2019-03-12T22:44:28.151Z,24.30
2019-03-12T22:46:59.065Z,24.20
2019-03-12T22:49:32.853Z,24.20
2019-03-12T22:52:03.913Z,24.10
2019-03-12T22:54:34.705Z,24.10
2019-03-12T22:57:05.484Z,24.10
2019-03-12T22:59:36.388Z,24.10
2019-03-12T23:02:07.183Z,24.10
2019-03-12T23:04:38.079Z,24.10
2019-03-12T23:07:08.902Z,24.00
2019-03-12T23:09:39.341Z,24.00
2019-03-12T23:12:10.235Z,24.00
2019-03-12T23:14:41.130Z,24.00
2019-03-12T23:17:11.966Z,24.00
2019-03-12T23:19:43.128Z,24.10
2019-03-12T23:22:13.981Z,24.10
2019-03-12T23:24:44.948Z,24.10
2019-03-12T23:27:15.806Z,24.10
2019-03-12T23:29:46.630Z,24.10
2019-03-12T23:32:17.882Z,24.10
2019-03-12T23:34:48.649Z,24.20
2019-03-12T23:37:19.385Z,24.20
2019-03-12T23:39:49.889Z,24.20
2019-03-12T23:42:21.042Z,24.30
2019-03-12T23:44:51.664Z,24.30
2019-03-12T23:47:22.630Z,24.30
2019-03-12T23:49:53.244Z,24.40
2019-03-12T23:52:24.007Z,24.40
2019-03-12T23:54:54.886Z,24.50
2019-03-12T23:57:25.566Z,24.50
2019-03-12T23:59:56.396Z,24.50
